KAID/AID METAR and TAF weather

Enter ICAO airport designator
Station Type Date Time Source
KAID METAR 2018/01/20 20:50 UTC NOAA

KAID 202050Z 21010KT 10SM OVC019 05/00 A3002


Station Type Date Time Source
KAID Decoded METAR 2018/01/20 20:50 UTC NOAA

Anderson Municipal, IN, United States (KAID) 40-07N 085-37W
Jan 20, 2018 - 03:50 PM EST / 2018.01.20 2050 UTC
Wind: from the SSW (210 degrees) at 12 MPH (10 KT):0
Visibility: 10 mile(s):0
Sky conditions: overcast
Temperature: 41 F (5 C)
Dew Point: 32 F (0 C)
Relative Humidity: 70%
Pressure (altimeter): 30.02 in. Hg (1016 hPa)
ob: KAID 202050Z 21010KT 10SM OVC019 05/00 A3002
cycle: 21

Station Type Date Time Source
KAID TAF UTC NOAA

Error!


Example: see airport list